createdAt,value
2018-04-07T00:00:55.597Z,6.97
2018-04-07T00:02:01.430Z,6.96
2018-04-07T00:03:07.408Z,6.97
2018-04-07T00:04:13.153Z,6.95
2018-04-07T00:05:18.915Z,6.93
2018-04-07T00:06:24.691Z,6.92
2018-04-07T00:07:31.211Z,6.91
2018-04-07T00:08:36.981Z,6.91
2018-04-07T00:09:43.480Z,6.91
2018-04-07T00:10:49.228Z,6.91
2018-04-07T00:11:55.021Z,6.89
2018-04-07T00:13:01.575Z,6.90
2018-04-07T00:14:08.848Z,6.87
2018-04-07T00:15:14.352Z,6.85
2018-04-07T00:16:20.088Z,6.84
2018-04-07T00:17:25.834Z,6.84
2018-04-07T00:18:31.745Z,6.82
2018-04-07T00:19:38.308Z,6.82
2018-04-07T00:20:44.148Z,6.80
2018-04-07T00:21:50.648Z,6.80
2018-04-07T00:22:56.176Z,6.80
2018-04-07T00:24:01.923Z,6.78
2018-04-07T00:25:07.452Z,6.77
2018-04-07T00:26:13.194Z,6.77
2018-04-07T00:27:18.704Z,6.77
2018-04-07T00:28:24.461Z,6.75
2018-04-07T00:29:30.209Z,6.74
2018-04-07T00:30:35.987Z,6.72
2018-04-07T00:31:42.500Z,6.72
2018-04-07T00:32:48.245Z,6.72
2018-04-07T00:33:53.996Z,6.72
2018-04-07T00:34:59.732Z,6.71
2018-04-07T00:36:05.507Z,6.69
2018-04-07T00:37:11.256Z,6.69
2018-04-07T00:38:16.998Z,6.72
2018-04-07T00:39:22.744Z,6.72
2018-04-07T00:40:28.255Z,6.69
2018-04-07T00:41:34.029Z,6.68
2018-04-07T00:42:40.311Z,6.69
2018-04-07T00:43:46.416Z,6.67
2018-04-07T00:44:52.165Z,6.69
2018-04-07T00:45:58.725Z,6.65
2018-04-07T00:47:04.282Z,6.66
2018-04-07T00:48:10.851Z,6.66
2018-04-07T00:49:16.384Z,6.66
2018-04-07T00:50:22.160Z,6.66
2018-04-07T00:51:27.908Z,6.67
2018-04-07T00:52:50.329Z,6.69
2018-04-07T00:53:56.080Z,6.62
2018-04-07T00:55:01.827Z,6.62
2018-04-07T00:56:07.573Z,6.57
2018-04-07T00:57:13.304Z,6.56
2018-04-07T00:58:18.812Z,6.57
2018-04-07T00:59:24.564Z,6.57
2018-04-07T01:00:30.472Z,6.57
2018-04-07T01:01:36.980Z,6.54
2018-04-07T01:02:42.811Z,6.51
2018-04-07T01:03:48.576Z,6.51
2018-04-07T01:04:54.317Z,6.53
2018-04-07T01:05:59.832Z,6.54
2018-04-07T01:07:05.578Z,6.53
2018-04-07T01:08:11.520Z,6.52
2018-04-07T01:09:17.291Z,6.49
2018-04-07T01:10:23.041Z,6.48
2018-04-07T01:11:28.794Z,6.48
2018-04-07T01:12:33.973Z,6.47
2018-04-07T01:13:39.716Z,6.44
2018-04-07T01:14:45.488Z,6.41
2018-04-07T01:15:52.002Z,6.40
2018-04-07T01:16:57.416Z,6.40
2018-04-07T01:18:03.924Z,6.36
2018-04-07T01:19:09.677Z,6.37
2018-04-07T01:20:15.518Z,6.38
2018-04-07T01:21:21.264Z,6.38
2018-04-07T01:22:27.000Z,6.38
2018-04-07T01:23:32.756Z,6.35
2018-04-07T01:24:38.518Z,6.33
2018-04-07T01:25:45.062Z,6.31
2018-04-07T01:26:51.587Z,6.31
2018-04-07T01:27:57.318Z,6.31
2018-04-07T01:29:03.082Z,6.30
2018-04-07T01:30:08.818Z,6.31
2018-04-07T01:31:14.598Z,6.30
2018-04-07T01:32:21.099Z,6.28
2018-04-07T01:33:26.845Z,6.26
2018-04-07T01:34:32.589Z,6.23
2018-04-07T01:35:38.336Z,6.22
2018-04-07T01:36:44.106Z,6.19
2018-04-07T01:37:50.624Z,6.18
2018-04-07T01:38:56.364Z,6.17
2018-04-07T01:40:01.976Z,6.15
2018-04-07T01:41:08.469Z,6.14
2018-04-07T01:42:14.005Z,6.13
2018-04-07T01:43:19.768Z,6.09
2018-04-07T01:44:25.543Z,6.11
2018-04-07T01:45:32.243Z,6.12
2018-04-07T01:46:38.012Z,6.10
2018-04-07T01:47:43.791Z,6.09
2018-04-07T01:48:50.306Z,6.07
2018-04-07T01:49:56.052Z,6.05
2018-04-07T01:51:01.803Z,6.06
2018-04-07T01:52:07.560Z,6.03
2018-04-07T01:53:13.326Z,6.03
2018-04-07T01:54:19.836Z,6.02
2018-04-07T01:55:25.578Z,6.01
2018-04-07T01:56:31.322Z,6.02
2018-04-07T01:57:37.064Z,6.00
2018-04-07T01:58:42.829Z,5.97
2018-04-07T01:59:49.341Z,5.98
2018-04-07T02:00:55.086Z,5.97
2018-04-07T02:02:00.833Z,5.96
2018-04-07T02:03:06.583Z,5.94
2018-04-07T02:04:12.345Z,5.92
2018-04-07T02:05:18.088Z,5.92
2018-04-07T02:06:23.837Z,5.90
2018-04-07T02:07:30.350Z,5.88
2018-04-07T02:08:36.092Z,5.87
2018-04-07T02:09:41.864Z,5.89
2018-04-07T02:10:47.613Z,5.89
2018-04-07T02:11:53.357Z,5.86
2018-04-07T02:12:58.765Z,5.85
2018-04-07T02:14:04.513Z,5.83
2018-04-07T02:15:10.287Z,5.83
2018-04-07T02:16:16.787Z,5.85
2018-04-07T02:17:22.529Z,5.81
2018-04-07T02:18:28.280Z,5.81
2018-04-07T02:19:34.030Z,5.80
2018-04-07T02:20:39.806Z,5.81
2018-04-07T02:21:46.313Z,5.79
2018-04-07T02:22:52.060Z,5.78
2018-04-07T02:23:57.800Z,5.77
2018-04-07T02:25:03.620Z,5.76
2018-04-07T02:26:09.385Z,5.75
2018-04-07T02:27:15.136Z,5.72
2018-04-07T02:28:20.886Z,5.73
2018-04-07T02:29:26.654Z,5.73
2018-04-07T02:30:33.174Z,5.72
2018-04-07T02:31:38.936Z,5.68
2018-04-07T02:32:44.693Z,5.66
2018-04-07T02:33:50.205Z,5.67
2018-04-07T02:34:55.954Z,5.65
2018-04-07T02:36:01.697Z,5.62
2018-04-07T02:37:07.460Z,5.59
2018-04-07T02:38:13.988Z,5.55
2018-04-07T02:39:19.741Z,5.52
2018-04-07T02:40:25.484Z,5.52
2018-04-07T02:41:32.736Z,5.52
2018-04-07T02:42:38.542Z,5.51
2018-04-07T02:43:45.254Z,5.49
2018-04-07T02:44:51.005Z,5.45
2018-04-07T02:45:56.774Z,5.43
2018-04-07T02:47:03.287Z,5.38
2018-04-07T02:48:09.052Z,5.37
2018-04-07T02:49:14.815Z,5.37
2018-04-07T02:50:21.589Z,5.37
2018-04-07T02:51:27.500Z,5.35
2018-04-07T02:52:33.266Z,5.34
2018-04-07T02:53:39.792Z,5.33
2018-04-07T02:54:45.547Z,5.29
2018-04-07T02:55:52.079Z,5.29
2018-04-07T02:56:57.821Z,5.30
2018-04-07T02:58:03.569Z,5.30
2018-04-07T02:59:09.345Z,5.32
2018-04-07T03:00:15.855Z,5.28
2018-04-07T03:01:21.597Z,5.28
2018-04-07T03:02:27.335Z,5.28
2018-04-07T03:03:33.075Z,5.28
2018-04-07T03:04:38.849Z,5.27
2018-04-07T03:05:44.612Z,5.26
2018-04-07T03:06:51.121Z,5.24
2018-04-07T03:07:56.868Z,5.23
2018-04-07T03:09:02.617Z,5.23
2018-04-07T03:10:08.381Z,5.19
2018-04-07T03:11:14.896Z,5.17
2018-04-07T03:12:20.645Z,5.16
2018-04-07T03:13:26.181Z,5.15
2018-04-07T03:14:31.937Z,5.14
2018-04-07T03:15:37.702Z,5.14
2018-04-07T03:16:43.455Z,5.14
2018-04-07T03:17:49.980Z,5.12
2018-04-07T03:18:55.725Z,5.12
2018-04-07T03:20:01.474Z,5.14
2018-04-07T03:21:07.268Z,5.15
2018-04-07T03:22:13.028Z,5.17
2018-04-07T03:23:18.773Z,5.17
2018-04-07T03:24:24.524Z,5.18
2018-04-07T03:25:30.260Z,5.14
2018-04-07T03:26:36.066Z,5.13
2018-04-07T03:27:42.590Z,5.14
2018-04-07T03:28:48.342Z,5.13
2018-04-07T03:29:54.090Z,5.09
2018-04-07T03:31:00.603Z,5.08
2018-04-07T03:32:06.376Z,5.06
2018-04-07T03:33:12.121Z,5.07
2018-04-07T03:34:17.897Z,5.06
2018-04-07T03:35:23.671Z,5.08
2018-04-07T03:36:29.424Z,5.07
2018-04-07T03:37:35.184Z,5.06
2018-04-07T03:38:40.925Z,5.07
2018-04-07T03:39:47.945Z,5.05
2018-04-07T03:40:53.685Z,5.07
2018-04-07T03:41:59.189Z,5.06
2018-04-07T03:43:05.516Z,5.05
2018-04-07T03:44:11.247Z,5.04
2018-04-07T03:45:17.000Z,5.02
2018-04-07T03:46:22.496Z,5.04
2018-04-07T03:47:28.241Z,5.03
2018-04-07T03:48:33.819Z,5.01
2018-04-07T03:49:39.569Z,5.00
2018-04-07T03:50:45.082Z,4.95
2018-04-07T03:51:51.088Z,4.95
2018-04-07T03:52:56.626Z,4.94
2018-04-07T03:54:02.401Z,4.92
2018-04-07T03:55:08.134Z,4.92
2018-04-07T03:56:13.879Z,4.94
2018-04-07T03:57:19.631Z,4.94
2018-04-07T03:58:25.372Z,4.92
2018-04-07T03:59:31.135Z,4.93
2018-04-07T04:00:36.659Z,4.92
2018-04-07T04:01:42.402Z,4.90
2018-04-07T04:02:49.862Z,4.92
2018-04-07T04:03:55.372Z,4.91
2018-04-07T04:05:00.905Z,4.90
2018-04-07T04:06:06.656Z,4.89
2018-04-07T04:07:12.388Z,4.86
2018-04-07T04:08:18.125Z,4.86
2018-04-07T04:09:23.902Z,4.84
2018-04-07T04:10:29.676Z,4.85
2018-04-07T04:11:35.958Z,4.85
2018-04-07T04:12:41.708Z,4.85
2018-04-07T04:13:47.448Z,4.85
2018-04-07T04:14:53.183Z,4.85
2018-04-07T04:15:58.947Z,4.84
2018-04-07T04:17:04.705Z,4.85
2018-04-07T04:18:10.444Z,4.85
2018-04-07T04:19:16.189Z,4.85
2018-04-07T04:20:21.934Z,4.82
2018-04-07T04:21:27.740Z,4.81
2018-04-07T04:22:33.472Z,4.82
2018-04-07T04:23:39.229Z,4.80
2018-04-07T04:24:44.986Z,4.80
2018-04-07T04:25:50.731Z,4.78
2018-04-07T04:26:56.498Z,4.74
2018-04-07T04:28:02.241Z,4.75
2018-04-07T04:29:07.978Z,4.75
2018-04-07T04:30:13.722Z,4.76
2018-04-07T04:31:19.466Z,4.76
2018-04-07T04:32:25.228Z,4.73
2018-04-07T04:33:31.747Z,4.72
2018-04-07T04:34:37.488Z,4.73
2018-04-07T04:35:43.329Z,4.71
2018-04-07T04:36:49.079Z,4.71
2018-04-07T04:37:54.846Z,4.73
2018-04-07T04:39:00.363Z,4.72
2018-04-07T04:40:06.248Z,4.72
2018-04-07T04:41:12.534Z,4.73
2018-04-07T04:42:18.308Z,4.74
2018-04-07T04:43:24.076Z,4.74
2018-04-07T04:44:30.592Z,4.74
2018-04-07T04:45:36.362Z,4.74
2018-04-07T04:46:42.972Z,4.74
2018-04-07T04:47:48.769Z,4.74
2018-04-07T04:48:55.668Z,4.74
2018-04-07T04:50:02.377Z,4.70
2018-04-07T04:51:08.151Z,4.69
2018-04-07T04:52:14.017Z,4.70
2018-04-07T04:53:20.769Z,4.71
2018-04-07T04:54:26.592Z,4.71
2018-04-07T04:55:32.943Z,4.71
2018-04-07T04:56:39.277Z,4.74
2018-04-07T04:57:45.072Z,4.76
2018-04-07T04:58:50.828Z,4.75
2018-04-07T04:59:56.606Z,4.76
2018-04-07T05:01:02.353Z,4.78
2018-04-07T05:02:08.104Z,4.78
2018-04-07T05:03:13.933Z,4.78
2018-04-07T05:04:19.673Z,4.79
2018-04-07T05:05:25.447Z,4.77
2018-04-07T05:06:32.061Z,4.79
2018-04-07T05:07:37.805Z,4.82
2018-04-07T05:08:43.564Z,4.84
2018-04-07T05:09:50.106Z,4.86
2018-04-07T05:10:55.881Z,4.86
2018-04-07T05:12:01.628Z,4.87
2018-04-07T05:13:08.134Z,4.88
2018-04-07T05:14:13.949Z,4.89
2018-04-07T05:15:20.216Z,4.87
2018-04-07T05:16:25.729Z,4.86
2018-04-07T05:17:31.499Z,4.84
2018-04-07T05:18:37.253Z,4.84
2018-04-07T05:19:42.765Z,4.85
2018-04-07T05:20:48.512Z,4.85
2018-04-07T05:21:54.268Z,4.87
2018-04-07T05:23:00.031Z,4.87
2018-04-07T05:24:05.784Z,4.90
2018-04-07T05:25:11.528Z,4.94
2018-04-07T05:26:17.306Z,4.95
2018-04-07T05:27:23.845Z,4.96
2018-04-07T05:28:29.606Z,4.98
2018-04-07T05:29:35.352Z,5.02
2018-04-07T05:30:41.102Z,5.04
2018-04-07T05:31:46.868Z,5.06
2018-04-07T05:32:52.642Z,5.07
2018-04-07T05:33:58.472Z,5.09
2018-04-07T05:35:04.244Z,5.11
2018-04-07T05:36:10.758Z,5.13
2018-04-07T05:37:16.494Z,5.16
2018-04-07T05:38:22.021Z,5.18
2018-04-07T05:39:27.774Z,5.19
2018-04-07T05:40:33.509Z,5.21
2018-04-07T05:41:39.264Z,5.25
2018-04-07T05:42:45.016Z,5.29
2018-04-07T05:43:50.777Z,5.31
2018-04-07T05:44:57.290Z,5.32
2018-04-07T05:46:02.716Z,5.36
2018-04-07T05:47:08.468Z,5.42
2018-04-07T05:48:14.198Z,5.43
2018-04-07T05:49:19.988Z,5.43
2018-04-07T05:50:26.525Z,5.46
2018-04-07T05:51:32.293Z,5.50
2018-04-07T05:52:38.032Z,5.54
2018-04-07T05:53:43.794Z,5.53
2018-04-07T05:54:50.322Z,5.56
2018-04-07T05:55:56.069Z,5.60
2018-04-07T05:57:01.846Z,5.63
2018-04-07T05:58:07.585Z,5.67
2018-04-07T05:59:13.342Z,5.70
2018-04-07T06:00:19.121Z,5.73
2018-04-07T06:01:24.877Z,5.76
2018-04-07T06:02:32.131Z,5.79
2018-04-07T06:03:37.883Z,5.77
2018-04-07T06:04:43.620Z,5.78
2018-04-07T06:05:49.392Z,5.80
2018-04-07T06:06:55.907Z,5.80
2018-04-07T06:08:01.658Z,5.82
2018-04-07T06:09:08.283Z,5.84
2018-04-07T06:10:14.027Z,5.87
2018-04-07T06:11:19.805Z,5.92
2018-04-07T06:12:25.565Z,5.96
2018-04-07T06:13:32.093Z,5.98
2018-04-07T06:14:37.836Z,6.02
2018-04-07T06:15:43.640Z,6.08
2018-04-07T06:16:50.172Z,6.09
2018-04-07T06:17:55.919Z,6.10
2018-04-07T06:19:02.216Z,6.09
2018-04-07T06:20:07.120Z,6.11
2018-04-07T06:21:12.629Z,6.14
2018-04-07T06:22:19.178Z,6.18
2018-04-07T06:23:24.937Z,6.21
2018-04-07T06:24:32.173Z,6.22
2018-04-07T06:25:37.912Z,6.26
2018-04-07T06:26:43.664Z,6.30
2018-04-07T06:27:49.428Z,6.33
2018-04-07T06:28:55.179Z,6.34
2018-04-07T06:30:01.690Z,6.35
2018-04-07T06:31:07.436Z,6.41
2018-04-07T06:32:13.202Z,6.44
2018-04-07T06:33:18.960Z,6.42
2018-04-07T06:34:24.720Z,6.47
2018-04-07T06:35:30.472Z,6.47
2018-04-07T06:36:36.033Z,6.48
2018-04-07T06:37:41.784Z,6.51
2018-04-07T06:38:47.563Z,6.54
2018-04-07T06:39:53.319Z,6.60
2018-04-07T06:40:59.833Z,6.64
2018-04-07T06:42:05.594Z,6.65
2018-04-07T06:43:11.357Z,6.67
2018-04-07T06:44:17.976Z,6.68
2018-04-07T06:45:23.709Z,6.72
2018-04-07T06:46:29.231Z,6.76
2018-04-07T06:47:34.981Z,6.79
2018-04-07T06:48:40.729Z,6.83
2018-04-07T06:49:46.520Z,6.87
2018-04-07T06:50:53.029Z,6.93
2018-04-07T06:51:58.787Z,7.00
2018-04-07T06:53:04.537Z,7.04
2018-04-07T06:54:10.299Z,7.10
2018-04-07T06:55:16.830Z,7.13
2018-04-07T06:56:22.601Z,7.20
2018-04-07T06:57:29.116Z,7.25
2018-04-07T06:58:35.087Z,7.30
2018-04-07T06:59:40.863Z,7.33
2018-04-07T07:00:47.415Z,7.39
2018-04-07T07:01:53.947Z,7.45
2018-04-07T07:02:59.682Z,7.51
2018-04-07T07:04:05.446Z,7.57
2018-04-07T07:05:11.740Z,7.61
2018-04-07T07:06:17.558Z,7.65
2018-04-07T07:07:23.312Z,7.71
2018-04-07T07:08:29.101Z,7.78
2018-04-07T07:09:34.844Z,7.85
2018-04-07T07:10:40.588Z,7.96
2018-04-07T07:11:46.194Z,8.13
2018-04-07T07:12:51.948Z,8.41
2018-04-07T07:13:57.684Z,8.81
2018-04-07T07:15:03.457Z,9.29
2018-04-07T07:16:09.217Z,9.85
2018-04-07T07:17:15.749Z,10.39
2018-04-07T07:18:22.829Z,10.93
2018-04-07T07:19:28.772Z,11.51
2018-04-07T07:20:34.529Z,12.04
2018-04-07T07:21:40.843Z,12.51
2018-04-07T07:22:46.652Z,12.92
2018-04-07T07:23:52.535Z,13.36
2018-04-07T07:24:58.064Z,13.88
2018-04-07T07:26:03.816Z,14.38
2018-04-07T07:27:09.338Z,14.79
2018-04-07T07:28:15.127Z,15.05
2018-04-07T07:29:21.632Z,15.26
2018-04-07T07:30:27.381Z,15.50
2018-04-07T07:31:33.141Z,15.70
2018-04-07T07:32:38.894Z,15.82
2018-04-07T07:33:44.449Z,16.09
2018-04-07T07:34:50.971Z,16.27
2018-04-07T07:35:56.714Z,16.52
2018-04-07T07:37:02.524Z,16.94
2018-04-07T07:38:08.276Z,17.20
2018-04-07T07:39:14.052Z,17.52
2018-04-07T07:40:19.817Z,17.85
2018-04-07T07:41:26.377Z,18.13
2018-04-07T07:42:32.117Z,18.05
2018-04-07T07:43:38.652Z,18.09
2018-04-07T07:44:44.423Z,18.23
2018-04-07T07:45:50.936Z,18.08
2018-04-07T07:46:56.694Z,18.30
2018-04-07T07:48:02.450Z,18.16
2018-04-07T07:49:08.214Z,18.20
2018-04-07T07:50:14.758Z,18.40
2018-04-07T07:51:20.514Z,18.69
2018-04-07T07:52:27.042Z,19.00
2018-04-07T07:53:32.789Z,19.25
2018-04-07T07:54:40.101Z,19.24
2018-04-07T07:55:46.644Z,19.37
2018-04-07T07:56:53.168Z,19.20
2018-04-07T07:57:58.917Z,19.16
2018-04-07T07:59:04.673Z,19.49
2018-04-07T08:00:10.437Z,19.75
2018-04-07T08:01:16.981Z,20.11
2018-04-07T08:02:22.740Z,20.27
2018-04-07T08:03:29.263Z,20.26
2018-04-07T08:04:34.867Z,20.40
2018-04-07T08:05:40.626Z,20.66
2018-04-07T08:06:46.410Z,20.97
2018-04-07T08:07:52.151Z,21.38
2018-04-07T08:08:58.683Z,21.39
2018-04-07T08:10:04.195Z,21.26
2018-04-07T08:11:09.967Z,21.35
2018-04-07T08:12:15.525Z,21.06
2018-04-07T08:13:22.043Z,21.03
2018-04-07T08:14:27.811Z,20.91
2018-04-07T08:15:33.562Z,20.79
2018-04-07T08:16:40.092Z,20.74
2018-04-07T08:17:46.105Z,20.59
2018-04-07T08:18:51.860Z,20.42
2018-04-07T08:19:57.622Z,20.53
2018-04-07T08:21:03.385Z,20.41
2018-04-07T08:22:10.325Z,20.37
2018-04-07T08:23:16.268Z,20.46
2018-04-07T08:24:22.831Z,20.60
2018-04-07T08:25:28.791Z,20.86
2018-04-07T08:26:34.551Z,21.07
2018-04-07T08:27:41.117Z,21.23
2018-04-07T08:28:48.713Z,21.31
2018-04-07T08:29:54.508Z,21.43
2018-04-07T08:31:00.041Z,21.68
2018-04-07T08:32:05.262Z,21.73
2018-04-07T08:33:11.216Z,21.75
2018-04-07T08:34:16.995Z,21.72
2018-04-07T08:35:22.753Z,22.00
2018-04-07T08:36:28.496Z,22.30
2018-04-07T08:37:34.271Z,22.54
2018-04-07T08:38:40.234Z,22.71
2018-04-07T08:39:45.840Z,23.04
2018-04-07T08:40:52.149Z,23.06
2018-04-07T08:41:58.249Z,22.92
2018-04-07T08:43:04.107Z,23.24
2018-04-07T08:44:09.969Z,23.18
2018-04-07T08:45:15.737Z,23.16
2018-04-07T08:46:21.499Z,23.19
2018-04-07T08:47:27.324Z,23.04
2018-04-07T08:48:32.851Z,22.84
2018-04-07T08:49:38.600Z,22.66
2018-04-07T08:50:44.422Z,22.51
2018-04-07T08:51:50.185Z,22.72
2018-04-07T08:52:55.995Z,23.02
2018-04-07T08:54:01.606Z,23.40
2018-04-07T08:55:10.059Z,23.59
2018-04-07T08:56:15.955Z,23.83
2018-04-07T08:57:22.138Z,23.88
2018-04-07T08:58:28.099Z,23.94
2018-04-07T08:59:34.098Z,23.98
2018-04-07T09:00:41.086Z,23.98
2018-04-07T09:01:47.701Z,24.06
2018-04-07T09:02:53.693Z,24.15
2018-04-07T09:04:00.312Z,24.24
2018-04-07T09:05:07.733Z,24.31
2018-04-07T09:06:14.280Z,24.07
2018-04-07T09:07:20.155Z,24.38
2018-04-07T09:08:26.668Z,24.46
2018-04-07T09:09:33.195Z,24.42
2018-04-07T09:10:38.988Z,24.31
2018-04-07T09:11:44.882Z,24.18
2018-04-07T09:12:50.681Z,24.30
2018-04-07T09:13:57.205Z,24.57
2018-04-07T09:15:02.956Z,24.51
2018-04-07T09:16:08.920Z,24.36
2018-04-07T09:17:15.452Z,24.32
2018-04-07T09:18:21.322Z,24.21
2018-04-07T09:19:27.151Z,23.98
2018-04-07T09:20:33.115Z,23.71
2018-04-07T09:21:38.911Z,23.79
2018-04-07T09:22:44.854Z,23.99
2018-04-07T09:23:50.378Z,24.37
2018-04-07T09:24:56.353Z,24.54
2018-04-07T09:26:02.097Z,24.59
2018-04-07T09:27:07.846Z,24.58
2018-04-07T09:28:13.638Z,24.61
2018-04-07T09:29:20.505Z,24.66
2018-04-07T09:30:26.299Z,25.02
2018-04-07T09:31:32.091Z,25.29
2018-04-07T09:32:37.904Z,25.27
2018-04-07T09:33:44.659Z,25.26
2018-04-07T09:34:50.544Z,25.67
2018-04-07T09:35:56.441Z,25.83
2018-04-07T09:37:02.225Z,25.60
2018-04-07T09:38:08.225Z,25.45
2018-04-07T09:39:14.006Z,25.06
2018-04-07T09:40:20.829Z,24.90
2018-04-07T09:41:26.620Z,24.73
2018-04-07T09:42:33.192Z,24.56
2018-04-07T09:43:38.721Z,24.49
2018-04-07T09:44:45.238Z,24.73
2018-04-07T09:45:51.032Z,24.92
2018-04-07T09:46:56.803Z,25.14
2018-04-07T09:48:02.581Z,25.32
2018-04-07T09:49:09.276Z,25.61
2018-04-07T09:50:15.915Z,25.75
2018-04-07T09:51:22.468Z,25.64
2018-04-07T09:52:29.034Z,25.99
2018-04-07T09:53:35.580Z,26.04
2018-04-07T09:54:41.434Z,25.61
2018-04-07T09:55:47.507Z,25.10
2018-04-07T09:56:54.046Z,25.10
2018-04-07T09:58:00.677Z,25.23
2018-04-07T09:59:07.935Z,25.59
2018-04-07T10:00:14.257Z,25.50
2018-04-07T10:01:19.868Z,25.38
2018-04-07T10:02:25.581Z,25.16
2018-04-07T10:03:31.528Z,24.68
2018-04-07T10:04:37.286Z,24.36
2018-04-07T10:05:43.816Z,24.37
2018-04-07T10:06:49.658Z,24.44
2018-04-07T10:07:56.508Z,24.69
2018-04-07T10:09:02.076Z,25.02
2018-04-07T10:10:08.494Z,24.95
2018-04-07T10:11:14.059Z,24.65
2018-04-07T10:12:19.820Z,24.72
2018-04-07T10:13:26.367Z,24.58
2018-04-07T10:14:32.936Z,24.53
2018-04-07T10:15:38.742Z,24.17
2018-04-07T10:16:44.621Z,24.21
2018-04-07T10:17:50.457Z,24.02
2018-04-07T10:18:57.085Z,24.11
2018-04-07T10:20:03.393Z,24.19
2018-04-07T10:21:11.147Z,24.19
2018-04-07T10:22:16.947Z,23.95
2018-04-07T10:23:24.643Z,23.45
2018-04-07T10:24:31.440Z,23.35
2018-04-07T10:25:37.245Z,23.21
2018-04-07T10:26:43.451Z,23.05
2018-04-07T10:27:49.276Z,22.90
2018-04-07T10:28:55.361Z,22.70
2018-04-07T10:30:01.145Z,22.49
2018-04-07T10:31:06.918Z,22.47
2018-04-07T10:32:12.688Z,22.48
2018-04-07T10:33:19.299Z,22.48
2018-04-07T10:34:26.281Z,22.32
2018-04-07T10:35:32.083Z,21.94
2018-04-07T10:36:37.852Z,21.93
2018-04-07T10:37:43.345Z,22.32
2018-04-07T10:38:51.568Z,22.28
2018-04-07T10:39:57.383Z,22.12
2018-04-07T10:41:03.178Z,22.07
2018-04-07T10:42:08.968Z,21.86
2018-04-07T10:43:14.733Z,21.70
2018-04-07T10:44:21.296Z,21.53
2018-04-07T10:45:27.117Z,21.42
2018-04-07T10:46:32.919Z,21.48
2018-04-07T10:47:38.672Z,21.39
2018-04-07T10:48:44.437Z,21.33
2018-04-07T10:49:50.280Z,21.27
2018-04-07T10:50:56.029Z,21.10
2018-04-07T10:52:02.602Z,20.91
2018-04-07T10:53:09.149Z,20.83
2018-04-07T10:54:14.900Z,20.73
2018-04-07T10:55:21.486Z,20.56
2018-04-07T10:56:28.107Z,20.31
2018-04-07T10:57:33.893Z,20.12
2018-04-07T10:58:39.664Z,19.87
2018-04-07T10:59:45.176Z,19.71
2018-04-07T11:00:50.950Z,19.62
2018-04-07T11:01:56.706Z,19.47
2018-04-07T11:03:02.490Z,19.30
2018-04-07T11:04:08.273Z,19.10
2018-04-07T11:05:13.791Z,19.04
2018-04-07T11:06:19.580Z,19.01
2018-04-07T11:07:26.190Z,18.76
2018-04-07T11:08:33.172Z,18.74
2018-04-07T11:09:38.974Z,18.65
2018-04-07T11:10:46.809Z,18.58
2018-04-07T11:11:52.722Z,18.58
2018-04-07T11:12:58.494Z,18.61
2018-04-07T11:14:04.620Z,18.67
2018-04-07T11:15:10.943Z,18.67
2018-04-07T11:16:16.709Z,18.68
2018-04-07T11:17:23.254Z,18.61
2018-04-07T11:18:29.186Z,18.65
2018-04-07T11:19:34.960Z,18.59
2018-04-07T11:20:40.724Z,18.62
2018-04-07T11:21:46.467Z,18.53
2018-04-07T11:22:52.240Z,18.46
2018-04-07T11:23:58.001Z,18.33
2018-04-07T11:25:03.777Z,18.20
2018-04-07T11:26:09.343Z,18.16
2018-04-07T11:27:14.765Z,18.20
2018-04-07T11:28:20.621Z,18.14
2018-04-07T11:29:26.360Z,18.10
2018-04-07T11:30:32.239Z,18.03
2018-04-07T11:31:38.760Z,18.01
2018-04-07T11:32:44.549Z,18.04
2018-04-07T11:33:50.330Z,18.13
2018-04-07T11:34:56.304Z,18.19
2018-04-07T11:36:02.089Z,18.19
2018-04-07T11:37:08.964Z,18.17
2018-04-07T11:38:15.481Z,18.14
2018-04-07T11:39:21.247Z,18.10
2018-04-07T11:40:27.829Z,18.10
2018-04-07T11:41:33.622Z,18.14
2018-04-07T11:42:39.373Z,18.15
2018-04-07T11:43:45.134Z,18.19
2018-04-07T11:44:51.758Z,18.20
2018-04-07T11:45:57.564Z,18.20
2018-04-07T11:47:03.441Z,18.17
2018-04-07T11:48:09.216Z,18.22
2018-04-07T11:49:14.984Z,18.29
2018-04-07T11:50:21.541Z,18.37
2018-04-07T11:51:28.108Z,18.43
2018-04-07T11:52:34.646Z,18.46
2018-04-07T11:53:40.415Z,18.50
2018-04-07T11:54:46.173Z,18.54
2018-04-07T11:55:51.956Z,18.57
2018-04-07T11:56:59.242Z,18.50
2018-04-07T11:58:05.908Z,18.48
2018-04-07T11:59:11.670Z,18.53
2018-04-07T12:00:17.490Z,18.50
2018-04-07T12:01:23.249Z,18.49
2018-04-07T12:02:29.790Z,18.51
2018-04-07T12:03:35.789Z,18.51
2018-04-07T12:04:41.564Z,18.57
2018-04-07T12:05:47.427Z,18.62
2018-04-07T12:06:54.175Z,18.61
2018-04-07T12:08:01.478Z,18.65
2018-04-07T12:09:07.926Z,18.69
2018-04-07T12:10:14.537Z,18.66
2018-04-07T12:11:20.321Z,18.68
2018-04-07T12:12:26.283Z,18.72
2018-04-07T12:13:32.861Z,18.76
2018-04-07T12:14:38.672Z,18.78
2018-04-07T12:15:45.471Z,18.80
2018-04-07T12:16:51.017Z,18.79
2018-04-07T12:17:57.057Z,18.84
2018-04-07T12:19:02.944Z,18.89
2018-04-07T12:20:08.924Z,18.93
2018-04-07T12:21:16.230Z,18.99
2018-04-07T12:22:23.786Z,19.04
2018-04-07T12:23:31.298Z,19.10
2018-04-07T12:24:38.064Z,19.10
2018-04-07T12:25:44.017Z,19.07
2018-04-07T12:26:50.853Z,19.12
2018-04-07T12:27:56.857Z,19.11
2018-04-07T12:29:03.894Z,19.17
2018-04-07T12:30:10.036Z,19.21
2018-04-07T12:31:17.501Z,19.25
2018-04-07T12:32:24.043Z,19.29
2018-04-07T12:33:30.759Z,19.34
2018-04-07T12:34:36.586Z,19.39
2018-04-07T12:35:42.441Z,19.40
2018-04-07T12:36:48.326Z,19.41
2018-04-07T12:37:55.039Z,19.42
2018-04-07T12:39:02.120Z,19.45
2018-04-07T12:40:08.055Z,19.48
2018-04-07T12:41:13.647Z,19.50
2018-04-07T12:42:19.695Z,19.53
2018-04-07T12:43:25.621Z,19.56
2018-04-07T12:44:31.577Z,19.66
2018-04-07T12:45:38.378Z,19.64
2018-04-07T12:46:44.924Z,19.63
2018-04-07T12:47:51.344Z,19.66
2018-04-07T12:48:57.766Z,19.67
2018-04-07T12:50:05.025Z,19.72
2018-04-07T12:51:11.937Z,19.77
2018-04-07T12:52:20.188Z,19.81
2018-04-07T12:53:27.392Z,19.84
2018-04-07T12:54:33.766Z,19.84
2018-04-07T12:55:39.944Z,19.78
2018-04-07T12:56:45.928Z,19.78
2018-04-07T12:57:52.576Z,19.80
2018-04-07T12:58:59.112Z,19.85
2018-04-07T13:00:04.497Z,19.85
2018-04-07T13:01:11.239Z,19.84
2018-04-07T13:02:17.385Z,19.85
2018-04-07T13:03:22.989Z,19.88
2018-04-07T13:04:29.484Z,19.94
2018-04-07T13:05:36.005Z,20.00
2018-04-07T13:06:42.380Z,20.07
2018-04-07T13:07:48.156Z,20.08
2018-04-07T13:08:54.689Z,20.11
2018-04-07T13:10:00.505Z,20.14
2018-04-07T13:11:06.287Z,20.17
2018-04-07T13:12:13.689Z,20.20
2018-04-07T13:13:19.462Z,20.23
2018-04-07T13:14:25.234Z,20.25
2018-04-07T13:15:31.019Z,20.29
2018-04-07T13:16:36.346Z,20.34
2018-04-07T13:17:43.708Z,20.40
2018-04-07T13:18:50.237Z,20.40
2018-04-07T13:19:56.007Z,20.38
2018-04-07T13:21:01.790Z,20.43
2018-04-07T13:22:07.583Z,20.50
2018-04-07T13:23:14.125Z,20.53
2018-04-07T13:24:19.935Z,20.53
2018-04-07T13:25:25.839Z,20.47
2018-04-07T13:26:32.594Z,20.50
2018-04-07T13:27:38.444Z,20.53
2018-04-07T13:28:45.158Z,20.56
2018-04-07T13:29:50.943Z,20.62
2018-04-07T13:30:56.660Z,20.61
2018-04-07T13:32:02.549Z,20.51
2018-04-07T13:33:09.025Z,20.53
2018-04-07T13:34:14.800Z,20.57
2018-04-07T13:35:20.719Z,20.62
2018-04-07T13:36:26.331Z,20.67
2018-04-07T13:37:33.268Z,20.73
2018-04-07T13:39:40.757Z,20.79
2018-04-07T13:40:46.575Z,20.78
2018-04-07T13:41:52.395Z,20.78
2018-04-07T13:42:58.272Z,20.72
2018-04-07T13:44:03.590Z,20.73
2018-04-07T13:45:10.638Z,20.73
2018-04-07T13:46:16.412Z,20.77
2018-04-07T13:47:22.238Z,20.84
2018-04-07T13:48:28.013Z,20.92
2018-04-07T13:49:33.770Z,20.98
2018-04-07T13:50:39.698Z,21.01
2018-04-07T13:51:45.698Z,21.06
2018-04-07T13:52:51.547Z,21.08
2018-04-07T13:53:57.042Z,21.11
2018-04-07T13:55:02.793Z,21.13
2018-04-07T13:56:09.488Z,21.17
2018-04-07T13:57:15.326Z,21.18
2018-04-07T13:58:21.477Z,21.21
2018-04-07T13:59:27.299Z,21.23
2018-04-07T14:00:33.778Z,21.22
2018-04-07T14:01:40.297Z,21.25
2018-04-07T14:02:46.053Z,21.31
2018-04-07T14:03:51.806Z,21.36
2018-04-07T14:04:58.368Z,21.41
2018-04-07T14:06:04.967Z,21.43
2018-04-07T14:07:10.748Z,21.48
2018-04-07T14:08:16.630Z,21.45
2018-04-07T14:09:22.397Z,21.44
2018-04-07T14:10:28.190Z,21.43
2018-04-07T14:11:33.943Z,21.40
2018-04-07T14:12:39.799Z,21.41
2018-04-07T14:13:46.325Z,21.42
2018-04-07T14:14:52.065Z,21.40
2018-04-07T14:15:57.846Z,21.40
2018-04-07T14:17:03.600Z,21.39
2018-04-07T14:18:09.357Z,21.40
2018-04-07T14:19:16.078Z,21.38
2018-04-07T14:20:22.644Z,21.40
2018-04-07T14:21:28.475Z,21.39
2018-04-07T14:22:35.524Z,21.43
2018-04-07T14:23:42.274Z,21.49
2018-04-07T14:24:48.171Z,21.53
2018-04-07T14:25:53.737Z,21.54